今日の羽田(2017/03/24)

QFA25/VH-OJM(B744)

ANA880/JA872A(B789)

APJ1078/JA808P(A320)

ANA968/JA801A(B788)

ANA822/JA624A(B763) with winglet

ANA8554/JA810A(B788)

ANA844/JA887A(B789)

N2480H(GLF5)

JAL36/JA710J(B772)

JAL34/JA732J(B77W) oneworld c/s

*TTW217/B-50006(A320)

SIA636/9V-SWU(B77W)

*APJ1029/JA808P(A320)

ANA850/JA879A(B789)

ANA856/JA883A(B789)

*N550GH(GLF5)

*AAR177/HL8267(A321)

ANA204/JA784A(B77W)

*KAL720/HL8273(B739)

JAL70/JA833J(B788)

*HKE625/B-LCG(A320)

RJTT 232000Z 02011KT 9999 FEW030 BKN035 BKN045 08/00 Q1015 NOSIG RMK 1CU030 5SC035 7SC045 A2998

RJTT 232100Z 02008KT 9999 -RA BKN035 BKN045 08/M00 Q1015 NOSIG RMK 6SC035 7SC045 A2999

RJTT 232200Z 04008KT 9999 -RA FEW030 BKN045 08/M00 Q1015 NOSIG RMK 1CU030 7SC045 A2999 MOD TURB OBS AT 2154Z BAYGE BTN 9000FT AND 11000FT IN CMB BY B738

今朝の羽田は小雨模様です。